sensor_id;sensor_type;location;lat;lon;timestamp;P1;durP1;ratioP1;P2;durP2;ratioP2
15816;SDS011;8009;50.070;8.232;2023-08-07T00:01:10;40.63;;;39.03;;
15816;SDS011;8009;50.070;8.232;2023-08-07T00:03:46;39.63;;;38.10;;
15816;SDS011;8009;50.070;8.232;2023-08-07T00:09:31;48.00;;;46.10;;
15816;SDS011;8009;50.070;8.232;2023-08-07T00:15:10;46.50;;;44.60;;
15816;SDS011;8009;50.070;8.232;2023-08-07T00:17:39;50.83;;;48.80;;
15816;SDS011;8009;50.070;8.232;2023-08-07T00:20:07;70.50;;;67.70;;
15816;SDS011;8009;50.070;8.232;2023-08-07T00:22:36;58.77;;;56.47;;
15816;SDS011;8009;50.070;8.232;2023-08-07T00:25:08;56.53;;;54.30;;
15816;SDS011;8009;50.070;8.232;2023-08-07T00:27:36;58.20;;;55.90;;
15816;SDS011;8009;50.070;8.232;2023-08-07T00:30:05;62.37;;;59.87;;
15816;SDS011;8009;50.070;8.232;2023-08-07T00:32:34;65.43;;;62.83;;
15816;SDS011;8009;50.070;8.232;2023-08-07T00:38:11;59.87;;;57.47;;
15816;SDS011;8009;50.070;8.232;2023-08-07T00:40:42;62.60;;;60.10;;
15816;SDS011;8009;50.070;8.232;2023-08-07T00:43:11;63.53;;;60.93;;
15816;SDS011;8009;50.070;8.232;2023-08-07T00:45:40;67.27;;;64.57;;
15816;SDS011;8009;50.070;8.232;2023-08-07T00:48:10;64.33;;;61.73;;
15816;SDS011;8009;50.070;8.232;2023-08-07T00:50:40;67.43;;;64.73;;
15816;SDS011;8009;50.070;8.232;2023-08-07T00:53:10;71.07;;;68.20;;
15816;SDS011;8009;50.070;8.232;2023-08-07T00:58:29;60.03;;;57.57;;
15816;SDS011;8009;50.070;8.232;2023-08-07T01:00:57;61.73;;;59.23;;
15816;SDS011;8009;50.070;8.232;2023-08-07T01:06:30;60.10;;;57.70;;
15816;SDS011;8009;50.070;8.232;2023-08-07T01:08:59;63.10;;;60.60;;
15816;SDS011;8009;50.070;8.232;2023-08-07T01:17:40;64.70;;;62.10;;
15816;SDS011;8009;50.070;8.232;2023-08-07T01:20:10;60.67;;;58.27;;
15816;SDS011;8009;50.070;8.232;2023-08-07T01:22:41;66.77;;;64.07;;
15816;SDS011;8009;50.070;8.232;2023-08-07T01:28:11;70.40;;;67.43;;
15816;SDS011;8009;50.070;8.232;2023-08-07T01:30:46;63.47;;;60.93;;
15816;SDS011;8009;50.070;8.232;2023-08-07T01:33:19;65.10;;;62.50;;
15816;SDS011;8009;50.070;8.232;2023-08-07T01:42:33;67.13;;;64.43;;
15816;SDS011;8009;50.070;8.232;2023-08-07T01:48:25;66.67;;;64.03;;
15816;SDS011;8009;50.070;8.232;2023-08-07T02:10:08;64.27;;;61.67;;
15816;SDS011;8009;50.070;8.232;2023-08-07T02:12:38;65.80;;;63.13;;
15816;SDS011;8009;50.070;8.232;2023-08-07T02:15:07;63.03;;;60.50;;
15816;SDS011;8009;50.070;8.232;2023-08-07T02:20:58;115.15;;;110.55;;
15816;SDS011;8009;50.070;8.232;2023-08-07T02:23:27;64.73;;;62.13;;
15816;SDS011;8009;50.070;8.232;2023-08-07T02:25:58;62.47;;;59.97;;
15816;SDS011;8009;50.070;8.232;2023-08-07T02:31:38;59.53;;;57.13;;
15816;SDS011;8009;50.070;8.232;2023-08-07T02:34:07;62.70;;;60.20;;
15816;SDS011;8009;50.070;8.232;2023-08-07T02:36:35;59.77;;;57.37;;
15816;SDS011;8009;50.070;8.232;2023-08-07T02:39:08;56.10;;;53.90;;
15816;SDS011;8009;50.070;8.232;2023-08-07T02:41:51;60.80;;;58.37;;
15816;SDS011;8009;50.070;8.232;2023-08-07T02:44:20;54.63;;;52.43;;
15816;SDS011;8009;50.070;8.232;2023-08-07T02:46:48;63.20;;;60.65;;
15816;SDS011;8009;50.070;8.232;2023-08-07T02:49:23;54.97;;;52.77;;
15816;SDS011;8009;50.070;8.232;2023-08-07T02:51:51;58.50;;;56.17;;
15816;SDS011;8009;50.070;8.232;2023-08-07T02:54:19;55.00;;;52.80;;
15816;SDS011;8009;50.070;8.232;2023-08-07T02:56:47;58.87;;;56.47;;
15816;SDS011;8009;50.070;8.232;2023-08-07T02:59:19;58.43;;;56.10;;
15816;SDS011;8009;50.070;8.232;2023-08-07T03:01:47;54.07;;;51.97;;
15816;SDS011;8009;50.070;8.232;2023-08-07T03:04:15;57.83;;;55.47;;
15816;SDS011;8009;50.070;8.232;2023-08-07T03:06:54;61.43;;;59.03;;
15816;SDS011;8009;50.070;8.232;2023-08-07T03:09:30;63.23;;;60.73;;
15816;SDS011;8009;50.070;8.232;2023-08-07T03:11:58;67.00;;;64.37;;
15816;SDS011;8009;50.070;8.232;2023-08-07T03:14:31;59.77;;;57.37;;
15816;SDS011;8009;50.070;8.232;2023-08-07T03:17:00;55.57;;;53.37;;
15816;SDS011;8009;50.070;8.232;2023-08-07T03:19:28;58.70;;;56.40;;
15816;SDS011;8009;50.070;8.232;2023-08-07T03:21:56;64.90;;;62.30;;
15816;SDS011;8009;50.070;8.232;2023-08-07T03:24:25;60.20;;;57.80;;
15816;SDS011;8009;50.070;8.232;2023-08-07T03:26:53;54.87;;;52.67;;
15816;SDS011;8009;50.070;8.232;2023-08-07T03:35:17;52.57;;;50.47;;
15816;SDS011;8009;50.070;8.232;2023-08-07T03:37:46;55.77;;;53.57;;
15816;SDS011;8009;50.070;8.232;2023-08-07T03:40:14;57.83;;;55.53;;
15816;SDS011;8009;50.070;8.232;2023-08-07T03:42:43;61.70;;;59.20;;
15816;SDS011;8009;50.070;8.232;2023-08-07T03:45:11;54.57;;;52.37;;
15816;SDS011;8009;50.070;8.232;2023-08-07T03:47:39;55.83;;;53.60;;
15816;SDS011;8009;50.070;8.232;2023-08-07T03:50:08;58.50;;;56.20;;
15816;SDS011;8009;50.070;8.232;2023-08-07T03:52:39;64.57;;;61.97;;
15816;SDS011;8009;50.070;8.232;2023-08-07T03:55:07;60.20;;;57.80;;
15816;SDS011;8009;50.070;8.232;2023-08-07T03:57:36;59.47;;;57.07;;
15816;SDS011;8009;50.070;8.232;2023-08-07T04:00:09;61.93;;;59.47;;
15816;SDS011;8009;50.070;8.232;2023-08-07T04:02:40;71.00;;;68.20;;
15816;SDS011;8009;50.070;8.232;2023-08-07T04:05:09;64.03;;;61.43;;
15816;SDS011;8009;50.070;8.232;2023-08-07T04:07:40;67.70;;;65.00;;
15816;SDS011;8009;50.070;8.232;2023-08-07T04:10:09;68.27;;;65.40;;
15816;SDS011;8009;50.070;8.232;2023-08-07T04:12:37;62.87;;;60.37;;
15816;SDS011;8009;50.070;8.232;2023-08-07T04:15:06;64.20;;;61.63;;
15816;SDS011;8009;50.070;8.232;2023-08-07T04:17:54;67.93;;;65.23;;
15816;SDS011;8009;50.070;8.232;2023-08-07T04:20:22;64.37;;;61.77;;
15816;SDS011;8009;50.070;8.232;2023-08-07T04:22:53;65.60;;;63.00;;
15816;SDS011;8009;50.070;8.232;2023-08-07T04:25:21;70.73;;;67.93;;
15816;SDS011;8009;50.070;8.232;2023-08-07T04:27:49;62.63;;;60.13;;
15816;SDS011;8009;50.070;8.232;2023-08-07T04:30:23;70.27;;;67.43;;
15816;SDS011;8009;50.070;8.232;2023-08-07T04:32:51;66.67;;;63.97;;
15816;SDS011;8009;50.070;8.232;2023-08-07T04:35:20;66.10;;;63.50;;
15816;SDS011;8009;50.070;8.232;2023-08-07T04:37:49;72.70;;;69.80;;
15816;SDS011;8009;50.070;8.232;2023-08-07T04:40:19;73.43;;;70.53;;
15816;SDS011;8009;50.070;8.232;2023-08-07T04:42:50;77.10;;;74.00;;
15816;SDS011;8009;50.070;8.232;2023-08-07T04:45:18;73.97;;;71.00;;
15816;SDS011;8009;50.070;8.232;2023-08-07T04:47:46;76.00;;;72.97;;
15816;SDS011;8009;50.070;8.232;2023-08-07T04:50:14;79.57;;;76.43;;
15816;SDS011;8009;50.070;8.232;2023-08-07T04:52:43;85.50;;;82.10;;
15816;SDS011;8009;50.070;8.232;2023-08-07T04:55:11;96.67;;;92.87;;
15816;SDS011;8009;50.070;8.232;2023-08-07T04:57:42;91.43;;;87.77;;
15816;SDS011;8009;50.070;8.232;2023-08-07T05:00:12;92.43;;;88.73;;
15816;SDS011;8009;50.070;8.232;2023-08-07T05:02:41;97.00;;;93.20;;
15816;SDS011;8009;50.070;8.232;2023-08-07T05:05:09;95.13;;;91.37;;
15816;SDS011;8009;50.070;8.232;2023-08-07T05:07:37;94.67;;;90.97;;
15816;SDS011;8009;50.070;8.232;2023-08-07T05:10:06;87.53;;;84.03;;
15816;SDS011;8009;50.070;8.232;2023-08-07T05:12:36;90.57;;;86.97;;
15816;SDS011;8009;50.070;8.232;2023-08-07T05:15:07;58.17;;;55.78;;
15816;SDS011;8009;50.070;8.232;2023-08-07T05:17:36;76.73;;;73.70;;
15816;SDS011;8009;50.070;8.232;2023-08-07T05:20:05;59.63;;;57.23;;
15816;SDS011;8009;50.070;8.232;2023-08-07T05:22:35;58.17;;;55.87;;
15816;SDS011;8009;50.070;8.232;2023-08-07T05:25:04;85.67;;;82.30;;
15816;SDS011;8009;50.070;8.232;2023-08-07T05:27:35;68.30;;;65.50;;
15816;SDS011;8009;50.070;8.232;2023-08-07T05:30:07;61.43;;;58.97;;
15816;SDS011;8009;50.070;8.232;2023-08-07T05:32:36;82.43;;;79.13;;
15816;SDS011;8009;50.070;8.232;2023-08-07T05:35:05;100.60;;;96.63;;
15816;SDS011;8009;50.070;8.232;2023-08-07T05:37:34;76.07;;;72.97;;
15816;SDS011;8009;50.070;8.232;2023-08-07T05:40:03;85.23;;;81.90;;
15816;SDS011;8009;50.070;8.232;2023-08-07T05:42:34;83.77;;;80.47;;
15816;SDS011;8009;50.070;8.232;2023-08-07T05:50:39;95.97;;;92.20;;
15816;SDS011;8009;50.070;8.232;2023-08-07T05:56:01;90.00;;;86.47;;
15816;SDS011;8009;50.070;8.232;2023-08-07T05:58:29;112.07;;;107.73;;
15816;SDS011;8009;50.070;8.232;2023-08-07T06:00:57;64.03;;;61.42;;
15816;SDS011;8009;50.070;8.232;2023-08-07T06:03:25;60.07;;;57.67;;
15816;SDS011;8009;50.070;8.232;2023-08-07T06:05:56;55.27;;;53.03;;
15816;SDS011;8009;50.070;8.232;2023-08-07T06:08:25;62.60;;;60.10;;
15816;SDS011;8009;50.070;8.232;2023-08-07T06:10:53;55.60;;;53.40;;
15816;SDS011;8009;50.070;8.232;2023-08-07T06:13:21;54.47;;;52.27;;
15816;SDS011;8009;50.070;8.232;2023-08-07T06:15:50;67.10;;;64.37;;
15816;SDS011;8009;50.070;8.232;2023-08-07T06:18:19;79.03;;;75.93;;
15816;SDS011;8009;50.070;8.232;2023-08-07T06:20:47;65.43;;;62.77;;
15816;SDS011;8009;50.070;8.232;2023-08-07T06:23:18;68.70;;;66.00;;
15816;SDS011;8009;50.070;8.232;2023-08-07T06:25:47;67.70;;;65.00;;
15816;SDS011;8009;50.070;8.232;2023-08-07T06:28:17;50.00;;;48.00;;
15816;SDS011;8009;50.070;8.232;2023-08-07T06:30:46;49.93;;;47.93;;
15816;SDS011;8009;50.070;8.232;2023-08-07T06:33:15;50.07;;;48.07;;
15816;SDS011;8009;50.070;8.232;2023-08-07T06:35:43;54.17;;;51.97;;
15816;SDS011;8009;50.070;8.232;2023-08-07T06:38:11;50.53;;;48.53;;
15816;SDS011;8009;50.070;8.232;2023-08-07T06:40:42;62.50;;;60.03;;
15816;SDS011;8009;50.070;8.232;2023-08-07T06:43:12;82.13;;;78.93;;
15816;SDS011;8009;50.070;8.232;2023-08-07T06:45:40;86.80;;;83.23;;
15816;SDS011;8009;50.070;8.232;2023-08-07T06:48:09;86.37;;;83.00;;
15816;SDS011;8009;50.070;8.232;2023-08-07T06:50:37;76.60;;;73.57;;
15816;SDS011;8009;50.070;8.232;2023-08-07T06:53:05;72.90;;;70.03;;
15816;SDS011;8009;50.070;8.232;2023-08-07T06:55:34;82.87;;;79.60;;
15816;SDS011;8009;50.070;8.232;2023-08-07T06:58:04;78.70;;;75.60;;
15816;SDS011;8009;50.070;8.232;2023-08-07T07:00:33;90.60;;;86.97;;
15816;SDS011;8009;50.070;8.232;2023-08-07T07:03:01;75.97;;;72.97;;
15816;SDS011;8009;50.070;8.232;2023-08-07T07:05:31;90.53;;;87.00;;
15816;SDS011;8009;50.070;8.232;2023-08-07T07:08:00;70.97;;;68.13;;
15816;SDS011;8009;50.070;8.232;2023-08-07T07:10:28;58.03;;;55.70;;
15816;SDS011;8009;50.070;8.232;2023-08-07T07:12:56;49.40;;;47.47;;
15816;SDS011;8009;50.070;8.232;2023-08-07T07:15:28;46.33;;;44.50;;
15816;SDS011;8009;50.070;8.232;2023-08-07T07:17:56;45.00;;;43.20;;
15816;SDS011;8009;50.070;8.232;2023-08-07T07:20:24;52.10;;;50.00;;
15816;SDS011;8009;50.070;8.232;2023-08-07T07:22:53;43.30;;;41.60;;
15816;SDS011;8009;50.070;8.232;2023-08-07T07:25:21;53.97;;;51.83;;
15816;SDS011;8009;50.070;8.232;2023-08-07T07:27:49;49.00;;;47.07;;
15816;SDS011;8009;50.070;8.232;2023-08-07T07:30:18;49.20;;;47.30;;
15816;SDS011;8009;50.070;8.232;2023-08-07T07:32:49;48.07;;;46.17;;
15816;SDS011;8009;50.070;8.232;2023-08-07T07:35:18;46.43;;;44.63;;
15816;SDS011;8009;50.070;8.232;2023-08-07T07:37:46;50.00;;;48.00;;
15816;SDS011;8009;50.070;8.232;2023-08-07T07:40:14;47.37;;;45.47;;
15816;SDS011;8009;50.070;8.232;2023-08-07T07:42:43;53.53;;;51.33;;
15816;SDS011;8009;50.070;8.232;2023-08-07T07:45:11;48.00;;;46.10;;
15816;SDS011;8009;50.070;8.232;2023-08-07T07:47:39;49.13;;;47.20;;
15816;SDS011;8009;50.070;8.232;2023-08-07T07:50:11;47.37;;;45.47;;
15816;SDS011;8009;50.070;8.232;2023-08-07T07:52:39;46.77;;;44.87;;
15816;SDS011;8009;50.070;8.232;2023-08-07T07:55:09;41.83;;;40.13;;
15816;SDS011;8009;50.070;8.232;2023-08-07T07:57:39;45.67;;;43.87;;
15816;SDS011;8009;50.070;8.232;2023-08-07T08:00:07;42.43;;;40.73;;
15816;SDS011;8009;50.070;8.232;2023-08-07T08:02:44;47.03;;;45.13;;
15816;SDS011;8009;50.070;8.232;2023-08-07T08:05:15;44.47;;;42.67;;
15816;SDS011;8009;50.070;8.232;2023-08-07T08:07:43;42.07;;;40.37;;
15816;SDS011;8009;50.070;8.232;2023-08-07T08:10:11;44.90;;;43.10;;
15816;SDS011;8009;50.070;8.232;2023-08-07T08:12:40;48.47;;;46.53;;
15816;SDS011;8009;50.070;8.232;2023-08-07T08:15:08;49.43;;;47.43;;
15816;SDS011;8009;50.070;8.232;2023-08-07T08:17:37;48.77;;;46.80;;
15816;SDS011;8009;50.070;8.232;2023-08-07T08:20:06;62.53;;;60.07;;
15816;SDS011;8009;50.070;8.232;2023-08-07T08:22:38;65.13;;;62.53;;
15816;SDS011;8009;50.070;8.232;2023-08-07T08:25:06;70.40;;;67.60;;
15816;SDS011;8009;50.070;8.232;2023-08-07T08:27:36;65.40;;;62.80;;
15816;SDS011;8009;50.070;8.232;2023-08-07T08:30:05;54.60;;;52.40;;
15816;SDS011;8009;50.070;8.232;2023-08-07T08:32:34;59.57;;;57.17;;
15816;SDS011;8009;50.070;8.232;2023-08-07T08:35:03;74.53;;;71.60;;
15816;SDS011;8009;50.070;8.232;2023-08-07T08:37:31;73.87;;;70.97;;
15816;SDS011;8009;50.070;8.232;2023-08-07T08:40:03;59.10;;;56.73;;
15816;SDS011;8009;50.070;8.232;2023-08-07T08:42:37;65.00;;;62.40;;
15816;SDS011;8009;50.070;8.232;2023-08-07T08:45:15;75.37;;;72.40;;
15816;SDS011;8009;50.070;8.232;2023-08-07T08:47:57;76.20;;;73.20;;
15816;SDS011;8009;50.070;8.232;2023-08-07T08:50:30;75.33;;;72.33;;
15816;SDS011;8009;50.070;8.232;2023-08-07T08:53:00;85.63;;;82.27;;
15816;SDS011;8009;50.070;8.232;2023-08-07T08:55:33;110.00;;;105.60;;
15816;SDS011;8009;50.070;8.232;2023-08-07T08:58:02;59.23;;;56.83;;
15816;SDS011;8009;50.070;8.232;2023-08-07T09:00:31;77.33;;;74.17;;
15816;SDS011;8009;50.070;8.232;2023-08-07T09:03:14;83.57;;;80.30;;
15816;SDS011;8009;50.070;8.232;2023-08-07T09:08:21;137.33;;;131.93;;
15816;SDS011;8009;50.070;8.232;2023-08-07T09:10:53;119.07;;;114.37;;
15816;SDS011;8009;50.070;8.232;2023-08-07T09:13:23;119.87;;;115.17;;
15816;SDS011;8009;50.070;8.232;2023-08-07T09:15:52;76.47;;;73.37;;
15816;SDS011;8009;50.070;8.232;2023-08-07T09:18:21;125.33;;;120.40;;
15816;SDS011;8009;50.070;8.232;2023-08-07T09:20:49;115.47;;;110.93;;
15816;SDS011;8009;50.070;8.232;2023-08-07T09:23:19;102.60;;;98.60;;
15816;SDS011;8009;50.070;8.232;2023-08-07T09:25:47;125.80;;;120.90;;
15816;SDS011;8009;50.070;8.232;2023-08-07T09:28:30;124.40;;;119.50;;
15816;SDS011;8009;50.070;8.232;2023-08-07T09:30:59;132.73;;;127.47;;
15816;SDS011;8009;50.070;8.232;2023-08-07T09:33:29;116.10;;;111.50;;
15816;SDS011;8009;50.070;8.232;2023-08-07T09:35:58;163.37;;;156.97;;
15816;SDS011;8009;50.070;8.232;2023-08-07T09:38:27;125.83;;;120.90;;
15816;SDS011;8009;50.070;8.232;2023-08-07T09:40:57;110.70;;;106.30;;
15816;SDS011;8009;50.070;8.232;2023-08-07T09:43:29;104.70;;;100.60;;
15816;SDS011;8009;50.070;8.232;2023-08-07T09:46:02;100.07;;;96.13;;
15816;SDS011;8009;50.070;8.232;2023-08-07T09:48:31;114.83;;;110.27;;
15816;SDS011;8009;50.070;8.232;2023-08-07T09:51:14;110.20;;;105.87;;
15816;SDS011;8009;50.070;8.232;2023-08-07T09:53:42;113.87;;;109.40;;
15816;SDS011;8009;50.070;8.232;2023-08-07T09:56:14;104.73;;;100.63;;
15816;SDS011;8009;50.070;8.232;2023-08-07T09:58:46;86.83;;;83.40;;
15816;SDS011;8009;50.070;8.232;2023-08-07T10:11:02;88.00;;;84.50;;
15816;SDS011;8009;50.070;8.232;2023-08-07T10:13:34;99.47;;;95.57;;
15816;SDS011;8009;50.070;8.232;2023-08-07T10:19:16;125.43;;;120.53;;
15816;SDS011;8009;50.070;8.232;2023-08-07T10:21:44;109.20;;;104.90;;
15816;SDS011;8009;50.070;8.232;2023-08-07T10:27:08;122.67;;;117.87;;
15816;SDS011;8009;50.070;8.232;2023-08-07T10:29:52;112.37;;;107.93;;
15816;SDS011;8009;50.070;8.232;2023-08-07T10:32:23;143.53;;;137.90;;
15816;SDS011;8009;50.070;8.232;2023-08-07T10:34:53;131.87;;;126.70;;
15816;SDS011;8009;50.070;8.232;2023-08-07T10:41:10;120.70;;;115.97;;
15816;SDS011;8009;50.070;8.232;2023-08-07T11:37:49;93.80;;;90.07;;
15816;SDS011;8009;50.070;8.232;2023-08-07T11:40:23;71.17;;;68.30;;
15816;SDS011;8009;50.070;8.232;2023-08-07T11:42:53;60.60;;;58.20;;
15816;SDS011;8009;50.070;8.232;2023-08-07T11:48:46;52.17;;;50.07;;
15816;SDS011;8009;50.070;8.232;2023-08-07T11:51:14;45.80;;;43.97;;
15816;SDS011;8009;50.070;8.232;2023-08-07T12:39:36;63.17;;;60.63;;
15816;SDS011;8009;50.070;8.232;2023-08-07T12:42:07;75.40;;;72.37;;
15816;SDS011;8009;50.070;8.232;2023-08-07T13:00:16;42.77;;;41.03;;
15816;SDS011;8009;50.070;8.232;2023-08-07T13:02:47;51.27;;;49.17;;
15816;SDS011;8009;50.070;8.232;2023-08-07T13:05:17;59.63;;;57.23;;
15816;SDS011;8009;50.070;8.232;2023-08-07T13:07:47;64.03;;;61.43;;
15816;SDS011;8009;50.070;8.232;2023-08-07T13:10:16;59.93;;;57.50;;
15816;SDS011;8009;50.070;8.232;2023-08-07T13:12:46;57.53;;;55.23;;
15816;SDS011;8009;50.070;8.232;2023-08-07T13:15:21;53.47;;;51.33;;
15816;SDS011;8009;50.070;8.232;2023-08-07T13:17:50;49.80;;;47.80;;
15816;SDS011;8009;50.070;8.232;2023-08-07T13:20:18;56.83;;;54.53;;
15816;SDS011;8009;50.070;8.232;2023-08-07T13:22:47;139.73;;;134.13;;
15816;SDS011;8009;50.070;8.232;2023-08-07T13:25:15;119.40;;;114.60;;
15816;SDS011;8009;50.070;8.232;2023-08-07T13:27:44;50.83;;;48.80;;
15816;SDS011;8009;50.070;8.232;2023-08-07T13:30:15;47.03;;;45.17;;
15816;SDS011;8009;50.070;8.232;2023-08-07T13:32:43;42.23;;;40.53;;
15816;SDS011;8009;50.070;8.232;2023-08-07T13:35:11;54.23;;;52.03;;
15816;SDS011;8009;50.070;8.232;2023-08-07T13:37:40;53.50;;;51.40;;
15816;SDS011;8009;50.070;8.232;2023-08-07T13:40:08;64.03;;;61.47;;
15816;SDS011;8009;50.070;8.232;2023-08-07T13:42:39;56.80;;;54.50;;
15816;SDS011;8009;50.070;8.232;2023-08-07T13:45:07;57.80;;;55.50;;
15816;SDS011;8009;50.070;8.232;2023-08-07T13:47:39;53.37;;;51.27;;
15816;SDS011;8009;50.070;8.232;2023-08-07T13:50:07;84.73;;;81.33;;
15816;SDS011;8009;50.070;8.232;2023-08-07T13:52:37;52.87;;;50.77;;
15816;SDS011;8009;50.070;8.232;2023-08-07T13:55:06;44.93;;;43.13;;
15816;SDS011;8009;50.070;8.232;2023-08-07T13:57:36;43.70;;;42.00;;
15816;SDS011;8009;50.070;8.232;2023-08-07T14:00:06;76.10;;;72.83;;
15816;SDS011;8009;50.070;8.232;2023-08-07T14:02:36;47.10;;;45.20;;
15816;SDS011;8009;50.070;8.232;2023-08-07T14:05:06;45.37;;;43.57;;
15816;SDS011;8009;50.070;8.232;2023-08-07T14:07:35;48.03;;;46.13;;
15816;SDS011;8009;50.070;8.232;2023-08-07T14:10:04;42.90;;;41.10;;
15816;SDS011;8009;50.070;8.232;2023-08-07T14:12:33;43.87;;;41.97;;
15816;SDS011;8009;50.070;8.232;2023-08-07T14:15:01;41.80;;;40.10;;
15816;SDS011;8009;50.070;8.232;2023-08-07T14:17:29;43.63;;;41.83;;
15816;SDS011;8009;50.070;8.232;2023-08-07T14:20:00;40.90;;;39.23;;
15816;SDS011;8009;50.070;8.232;2023-08-07T14:22:29;39.40;;;37.87;;
15816;SDS011;8009;50.070;8.232;2023-08-07T14:25:00;38.97;;;37.37;;
15816;SDS011;8009;50.070;8.232;2023-08-07T14:27:28;38.73;;;37.13;;
15816;SDS011;8009;50.070;8.232;2023-08-07T14:29:56;34.40;;;33.07;;
15816;SDS011;8009;50.070;8.232;2023-08-07T14:32:25;38.07;;;36.57;;
15816;SDS011;8009;50.070;8.232;2023-08-07T14:34:53;37.20;;;35.70;;
15816;SDS011;8009;50.070;8.232;2023-08-07T14:37:24;38.00;;;36.50;;
15816;SDS011;8009;50.070;8.232;2023-08-07T14:39:53;38.30;;;36.80;;
15816;SDS011;8009;50.070;8.232;2023-08-07T14:42:22;36.93;;;35.43;;
15816;SDS011;8009;50.070;8.232;2023-08-07T14:44:51;38.50;;;37.00;;
15816;SDS011;8009;50.070;8.232;2023-08-07T14:47:19;34.13;;;32.80;;
15816;SDS011;8009;50.070;8.232;2023-08-07T14:49:48;36.63;;;35.23;;
15816;SDS011;8009;50.070;8.232;2023-08-07T14:52:16;39.20;;;37.63;;
15816;SDS011;8009;50.070;8.232;2023-08-07T14:54:47;40.50;;;38.90;;
15816;SDS011;8009;50.070;8.232;2023-08-07T14:57:18;48.67;;;46.67;;
15816;SDS011;8009;50.070;8.232;2023-08-07T14:59:46;45.23;;;43.43;;
15816;SDS011;8009;50.070;8.232;2023-08-07T15:02:14;41.17;;;39.43;;
15816;SDS011;8009;50.070;8.232;2023-08-07T15:04:43;46.10;;;44.23;;
15816;SDS011;8009;50.070;8.232;2023-08-07T15:07:11;32.83;;;31.53;;
15816;SDS011;8009;50.070;8.232;2023-08-07T15:09:40;37.37;;;35.87;;
15816;SDS011;8009;50.070;8.232;2023-08-07T15:12:11;37.87;;;36.33;;
15816;SDS011;8009;50.070;8.232;2023-08-07T15:14:39;46.90;;;45.00;;
15816;SDS011;8009;50.070;8.232;2023-08-07T15:17:08;45.47;;;43.67;;
15816;SDS011;8009;50.070;8.232;2023-08-07T15:19:36;40.93;;;39.27;;
15816;SDS011;8009;50.070;8.232;2023-08-07T15:22:05;67.67;;;64.97;;
15816;SDS011;8009;50.070;8.232;2023-08-07T15:24:33;65.63;;;63.03;;
15816;SDS011;8009;50.070;8.232;2023-08-07T15:27:01;61.53;;;59.03;;
15816;SDS011;8009;50.070;8.232;2023-08-07T15:29:33;94.40;;;90.63;;
15816;SDS011;8009;50.070;8.232;2023-08-07T15:32:01;89.70;;;86.20;;
15816;SDS011;8009;50.070;8.232;2023-08-07T15:34:30;74.17;;;71.23;;
15816;SDS011;8009;50.070;8.232;2023-08-07T15:36:58;75.00;;;72.00;;
15816;SDS011;8009;50.070;8.232;2023-08-07T15:39:27;75.20;;;72.13;;
15816;SDS011;8009;50.070;8.232;2023-08-07T15:41:55;80.47;;;77.20;;
15816;SDS011;8009;50.070;8.232;2023-08-07T15:44:24;69.70;;;66.90;;
15816;SDS011;8009;50.070;8.232;2023-08-07T15:46:56;73.67;;;70.67;;
15816;SDS011;8009;50.070;8.232;2023-08-07T15:49:27;173.73;;;166.65;;
15816;SDS011;8009;50.070;8.232;2023-08-07T15:51:55;106.53;;;102.33;;
15816;SDS011;8009;50.070;8.232;2023-08-07T15:54:41;90.77;;;87.17;;
15816;SDS011;8009;50.070;8.232;2023-08-07T15:57:11;33.40;;;32.10;;
15816;SDS011;8009;50.070;8.232;2023-08-07T15:59:39;20.37;;;19.57;;
15816;SDS011;8009;50.070;8.232;2023-08-07T16:02:12;22.40;;;21.53;;
15816;SDS011;8009;50.070;8.232;2023-08-07T16:04:40;20.37;;;19.57;;
15816;SDS011;8009;50.070;8.232;2023-08-07T16:07:09;23.63;;;22.70;;
15816;SDS011;8009;50.070;8.232;2023-08-07T16:09:39;19.07;;;18.37;;
15816;SDS011;8009;50.070;8.232;2023-08-07T16:12:07;20.23;;;19.43;;
15816;SDS011;8009;50.070;8.232;2023-08-07T16:17:45;14.20;;;13.70;;
15816;SDS011;8009;50.070;8.232;2023-08-07T16:20:13;19.93;;;19.13;;
15816;SDS011;8009;50.070;8.232;2023-08-07T16:22:46;16.93;;;16.30;;
15816;SDS011;8009;50.070;8.232;2023-08-07T16:25:16;16.50;;;15.90;;
15816;SDS011;8009;50.070;8.232;2023-08-07T16:31:00;13.93;;;13.43;;
15816;SDS011;8009;50.070;8.232;2023-08-07T16:33:31;13.17;;;12.67;;
15816;SDS011;8009;50.070;8.232;2023-08-07T16:35:59;12.27;;;11.83;;
15816;SDS011;8009;50.070;8.232;2023-08-07T16:38:29;13.90;;;13.40;;
15816;SDS011;8009;50.070;8.232;2023-08-07T16:40:57;14.80;;;14.30;;
15816;SDS011;8009;50.070;8.232;2023-08-07T16:43:25;13.87;;;13.37;;
15816;SDS011;8009;50.070;8.232;2023-08-07T16:45:56;13.83;;;13.33;;
15816;SDS011;8009;50.070;8.232;2023-08-07T16:48:26;12.40;;;11.90;;
15816;SDS011;8009;50.070;8.232;2023-08-07T16:50:58;14.90;;;14.33;;
15816;SDS011;8009;50.070;8.232;2023-08-07T16:53:31;13.87;;;13.37;;
15816;SDS011;8009;50.070;8.232;2023-08-07T16:55:59;13.03;;;12.53;;
15816;SDS011;8009;50.070;8.232;2023-08-07T16:58:27;14.33;;;13.83;;
15816;SDS011;8009;50.070;8.232;2023-08-07T17:00:56;11.97;;;11.57;;
15816;SDS011;8009;50.070;8.232;2023-08-07T17:03:24;14.50;;;13.97;;
15816;SDS011;8009;50.070;8.232;2023-08-07T17:05:52;14.07;;;13.57;;
15816;SDS011;8009;50.070;8.232;2023-08-07T17:08:23;14.87;;;14.30;;
15816;SDS011;8009;50.070;8.232;2023-08-07T17:10:52;14.63;;;14.13;;
15816;SDS011;8009;50.070;8.232;2023-08-07T17:13:20;15.17;;;14.60;;
15816;SDS011;8009;50.070;8.232;2023-08-07T17:15:50;13.33;;;12.83;;
15816;SDS011;8009;50.070;8.232;2023-08-07T17:18:19;17.37;;;16.67;;
15816;SDS011;8009;50.070;8.232;2023-08-07T17:20:47;14.93;;;14.33;;
15816;SDS011;8009;50.070;8.232;2023-08-07T17:23:15;13.43;;;12.93;;
15816;SDS011;8009;50.070;8.232;2023-08-07T17:25:46;14.17;;;13.67;;
15816;SDS011;8009;50.070;8.232;2023-08-07T17:28:14;14.57;;;14.07;;
15816;SDS011;8009;50.070;8.232;2023-08-07T17:30:43;33.28;;;31.92;;
15816;SDS011;8009;50.070;8.232;2023-08-07T17:33:11;53.43;;;51.20;;
15816;SDS011;8009;50.070;8.232;2023-08-07T17:35:39;72.13;;;69.10;;
15816;SDS011;8009;50.070;8.232;2023-08-07T17:38:10;62.90;;;60.30;;
15816;SDS011;8009;50.070;8.232;2023-08-07T17:40:39;62.93;;;60.33;;
15816;SDS011;8009;50.070;8.232;2023-08-07T17:43:10;60.70;;;58.20;;
15816;SDS011;8009;50.070;8.232;2023-08-07T17:45:38;57.77;;;55.37;;
15816;SDS011;8009;50.070;8.232;2023-08-07T17:48:07;55.63;;;53.40;;
15816;SDS011;8009;50.070;8.232;2023-08-07T17:50:35;49.83;;;47.83;;
15816;SDS011;8009;50.070;8.232;2023-08-07T17:53:04;41.63;;;39.93;;
15816;SDS011;8009;50.070;8.232;2023-08-07T17:55:32;45.13;;;43.33;;
15816;SDS011;8009;50.070;8.232;2023-08-07T17:58:01;44.00;;;42.23;;
15816;SDS011;8009;50.070;8.232;2023-08-07T18:00:33;34.60;;;33.20;;
15816;SDS011;8009;50.070;8.232;2023-08-07T18:03:01;37.33;;;35.83;;
15816;SDS011;8009;50.070;8.232;2023-08-07T18:05:31;35.50;;;34.10;;
15816;SDS011;8009;50.070;8.232;2023-08-07T18:08:00;38.03;;;36.53;;
15816;SDS011;8009;50.070;8.232;2023-08-07T18:10:28;32.57;;;31.27;;
15816;SDS011;8009;50.070;8.232;2023-08-07T18:12:56;30.60;;;29.40;;
15816;SDS011;8009;50.070;8.232;2023-08-07T18:15:25;33.17;;;31.88;;
15816;SDS011;8009;50.070;8.232;2023-08-07T18:17:56;39.37;;;37.77;;
15816;SDS011;8009;50.070;8.232;2023-08-07T18:20:24;38.33;;;36.83;;
15816;SDS011;8009;50.070;8.232;2023-08-07T18:22:52;40.63;;;39.03;;
15816;SDS011;8009;50.070;8.232;2023-08-07T18:25:20;35.83;;;34.43;;
15816;SDS011;8009;50.070;8.232;2023-08-07T18:27:49;36.33;;;34.90;;
15816;SDS011;8009;50.070;8.232;2023-08-07T18:30:17;37.07;;;35.57;;